createdAt,value
2022-11-24T00:00:00.639Z,932.04
2022-11-24T00:01:00.655Z,932.08
2022-11-24T00:02:00.769Z,932.10
2022-11-24T00:03:00.945Z,932.14
2022-11-24T00:04:00.633Z,932.16
2022-11-24T00:05:00.592Z,932.18
2022-11-24T00:06:00.619Z,932.23
2022-11-24T00:07:00.624Z,932.28
2022-11-24T00:08:00.594Z,932.22
2022-11-24T00:09:00.573Z,932.32
2022-11-24T00:10:00.679Z,932.23
2022-11-24T00:11:00.547Z,932.35
2022-11-24T00:12:00.530Z,932.28
2022-11-24T00:13:00.545Z,932.30
2022-11-24T00:14:00.552Z,932.33
2022-11-24T00:15:00.485Z,932.29
2022-11-24T00:16:00.479Z,932.33
2022-11-24T00:17:00.574Z,932.28
2022-11-24T00:18:00.463Z,932.35
2022-11-24T00:19:00.533Z,932.35
2022-11-24T00:20:00.758Z,932.27
2022-11-24T00:21:00.444Z,932.30
2022-11-24T00:22:00.452Z,932.34
2022-11-24T00:23:00.414Z,932.30
2022-11-24T00:24:00.486Z,932.29
2022-11-24T00:25:00.422Z,932.27
2022-11-24T00:26:00.391Z,932.22
2022-11-24T00:27:00.398Z,932.31
2022-11-24T00:28:00.379Z,932.30
2022-11-24T00:29:00.370Z,932.23
2022-11-24T00:30:00.397Z,932.22
2022-11-24T00:31:00.405Z,932.21
2022-11-24T00:32:00.359Z,932.28
2022-11-24T00:33:00.337Z,932.27
2022-11-24T00:34:00.321Z,932.33
2022-11-24T00:35:00.305Z,932.32
2022-11-24T00:36:00.314Z,932.35
2022-11-24T00:37:00.329Z,932.38
2022-11-24T00:38:00.292Z,932.35
2022-11-24T00:39:00.334Z,932.37
2022-11-24T00:40:00.295Z,932.35
2022-11-24T00:41:00.307Z,932.37
2022-11-24T00:42:00.234Z,932.39
2022-11-24T00:43:00.317Z,932.37
2022-11-24T00:44:00.232Z,932.37
2022-11-24T00:45:00.773Z,932.40
2022-11-24T00:46:00.325Z,932.42
2022-11-24T00:47:00.306Z,932.39
2022-11-24T00:48:00.250Z,932.44
2022-11-24T00:49:00.133Z,932.45
2022-11-24T00:50:00.131Z,932.41
2022-11-24T00:51:00.143Z,932.44
2022-11-24T00:52:00.484Z,932.47
2022-11-24T00:53:00.112Z,932.46
2022-11-24T00:54:00.102Z,932.49
2022-11-24T00:55:00.083Z,932.50
2022-11-24T00:56:00.107Z,932.55
2022-11-24T00:57:00.111Z,932.48
2022-11-24T00:58:00.166Z,932.49
2022-11-24T00:59:00.099Z,932.57
2022-11-24T01:00:00.018Z,932.56
2022-11-24T01:01:00.063Z,932.53
2022-11-24T01:02:00.110Z,932.56
2022-11-24T01:03:00.129Z,932.56
2022-11-24T01:04:00.048Z,932.50
2022-11-24T01:04:59.960Z,932.56
2022-11-24T01:05:59.959Z,932.58
2022-11-24T01:07:00.705Z,932.56
2022-11-24T01:07:59.933Z,932.55
2022-11-24T01:08:59.981Z,932.61
2022-11-24T01:09:59.948Z,932.59
2022-11-24T01:10:59.937Z,932.62
2022-11-24T01:11:59.971Z,932.61
2022-11-24T01:12:59.891Z,932.63
2022-11-24T01:13:59.882Z,932.66
2022-11-24T01:14:59.897Z,932.69
2022-11-24T01:15:59.933Z,932.73
2022-11-24T01:16:59.838Z,932.74
2022-11-24T01:17:59.830Z,932.76
2022-11-24T01:18:59.846Z,932.74
2022-11-24T01:19:59.839Z,932.78
2022-11-24T01:20:59.862Z,932.80
2022-11-24T01:21:59.829Z,932.79
2022-11-24T01:22:59.815Z,932.78
2022-11-24T01:23:59.779Z,932.87
2022-11-24T01:24:59.824Z,932.84
2022-11-24T01:25:59.782Z,932.86
2022-11-24T01:26:59.772Z,932.84
2022-11-24T01:27:59.800Z,932.86
2022-11-24T01:28:59.748Z,932.80
2022-11-24T01:29:59.734Z,932.79
2022-11-24T01:30:59.825Z,932.82
2022-11-24T01:31:59.697Z,932.88
2022-11-24T01:32:59.700Z,932.89
2022-11-24T01:33:59.702Z,932.87
2022-11-24T01:34:59.696Z,932.94
2022-11-24T01:35:59.664Z,932.93
2022-11-24T01:36:59.643Z,932.95
2022-11-24T01:37:59.836Z,932.91
2022-11-24T01:38:59.623Z,933.00
2022-11-24T01:39:59.607Z,932.99
2022-11-24T01:40:59.649Z,933.01
2022-11-24T01:41:59.636Z,933.04
2022-11-24T01:42:59.583Z,933.03
2022-11-24T01:43:59.682Z,933.14
2022-11-24T01:44:59.580Z,933.11
2022-11-24T01:45:59.594Z,933.11
2022-11-24T01:46:59.531Z,933.19
2022-11-24T01:47:59.534Z,933.20
2022-11-24T01:48:59.529Z,933.17
2022-11-24T01:49:59.503Z,933.20
2022-11-24T01:50:59.560Z,933.27
2022-11-24T01:51:59.483Z,933.28
2022-11-24T01:52:59.466Z,933.30
2022-11-24T01:53:59.477Z,933.33
2022-11-24T01:54:59.485Z,933.31
2022-11-24T01:55:59.453Z,933.34
2022-11-24T01:56:59.431Z,933.34
2022-11-24T01:57:59.481Z,933.35
2022-11-24T01:58:59.461Z,933.36
2022-11-24T01:59:59.418Z,933.39
2022-11-24T02:00:59.412Z,933.42
2022-11-24T02:01:59.470Z,933.42
2022-11-24T02:02:59.516Z,933.42
2022-11-24T02:03:59.368Z,933.47
2022-11-24T02:04:59.344Z,933.42
2022-11-24T02:05:59.402Z,933.45
2022-11-24T02:06:59.322Z,933.46
2022-11-24T02:07:59.312Z,933.42
2022-11-24T02:08:59.325Z,933.42
2022-11-24T02:09:59.296Z,933.51
2022-11-24T02:10:59.287Z,933.50
2022-11-24T02:11:59.270Z,933.53
2022-11-24T02:12:59.281Z,933.55
2022-11-24T02:13:59.274Z,933.55
2022-11-24T02:14:59.242Z,933.57
2022-11-24T02:15:59.283Z,933.59
2022-11-24T02:17:10.445Z,933.58
2022-11-24T02:17:59.217Z,933.59
2022-11-24T02:18:59.269Z,933.63
2022-11-24T02:19:59.184Z,933.59
2022-11-24T02:20:59.232Z,933.62
2022-11-24T02:21:59.215Z,933.61
2022-11-24T02:22:59.165Z,933.55
2022-11-24T02:23:59.165Z,933.61
2022-11-24T02:24:59.160Z,933.64
2022-11-24T02:25:59.139Z,933.65
2022-11-24T02:26:59.136Z,933.68
2022-11-24T02:27:59.131Z,933.63
2022-11-24T02:28:59.110Z,933.65
2022-11-24T02:29:59.138Z,933.64
2022-11-24T02:30:59.107Z,933.62
2022-11-24T02:31:59.090Z,933.67
2022-11-24T02:32:59.258Z,933.71
2022-11-24T02:33:59.049Z,933.69
2022-11-24T02:34:59.094Z,933.72
2022-11-24T02:35:59.044Z,933.66
2022-11-24T02:36:59.025Z,933.76
2022-11-24T02:37:59.067Z,933.68
2022-11-24T02:38:58.991Z,933.77
2022-11-24T02:39:58.974Z,933.74
2022-11-24T02:40:58.977Z,933.83
2022-11-24T02:41:58.976Z,933.87
2022-11-24T02:42:58.972Z,933.87
2022-11-24T02:43:58.985Z,933.87
2022-11-24T02:44:58.920Z,933.88
2022-11-24T02:45:58.966Z,933.85
2022-11-24T02:47:03.773Z,933.89
2022-11-24T02:47:58.908Z,933.92
2022-11-24T02:48:58.903Z,933.90
2022-11-24T02:49:58.897Z,933.91
2022-11-24T02:50:59.697Z,933.95
2022-11-24T02:51:58.865Z,933.96
2022-11-24T02:52:58.865Z,933.95
2022-11-24T02:53:58.878Z,933.96
2022-11-24T02:54:58.945Z,934.02
2022-11-24T02:55:58.814Z,933.95
2022-11-24T02:56:58.858Z,934.02
2022-11-24T02:57:58.806Z,934.00
2022-11-24T02:58:58.810Z,934.01
2022-11-24T02:59:58.826Z,933.98
2022-11-24T03:00:58.854Z,933.96
2022-11-24T03:01:58.824Z,933.99
2022-11-24T03:02:58.814Z,934.08
2022-11-24T03:03:58.745Z,934.05
2022-11-24T03:04:58.846Z,934.06
2022-11-24T03:05:58.723Z,934.07
2022-11-24T03:06:58.703Z,934.08
2022-11-24T03:07:58.695Z,934.09
2022-11-24T03:08:58.685Z,934.05
2022-11-24T03:09:58.672Z,934.09
2022-11-24T03:10:58.685Z,934.06
2022-11-24T03:11:58.672Z,934.11
2022-11-24T03:12:58.641Z,934.04
2022-11-24T03:13:58.660Z,934.09
2022-11-24T03:14:58.624Z,934.05
2022-11-24T03:15:58.725Z,934.09
2022-11-24T03:17:03.262Z,934.13
2022-11-24T03:17:58.605Z,934.15
2022-11-24T03:18:58.607Z,934.16
2022-11-24T03:20:04.159Z,934.13
2022-11-24T03:20:59.563Z,934.15
2022-11-24T03:21:58.602Z,934.21
2022-11-24T03:22:58.559Z,934.22
2022-11-24T03:23:58.527Z,934.20
2022-11-24T03:24:58.607Z,934.20
2022-11-24T03:25:58.518Z,934.21
2022-11-24T03:26:58.503Z,934.19
2022-11-24T03:27:58.535Z,934.18
2022-11-24T03:28:58.522Z,934.21
2022-11-24T03:29:58.469Z,934.24
2022-11-24T03:30:58.500Z,934.19
2022-11-24T03:31:58.562Z,934.26
2022-11-24T03:32:58.444Z,934.26
2022-11-24T03:33:58.481Z,934.29
2022-11-24T03:34:58.477Z,934.22
2022-11-24T03:35:58.401Z,934.30
2022-11-24T03:36:58.428Z,934.24
2022-11-24T03:37:58.381Z,934.25
2022-11-24T03:38:58.433Z,934.23
2022-11-24T03:39:58.387Z,934.22
2022-11-24T03:40:58.380Z,934.25
2022-11-24T03:41:58.399Z,934.26
2022-11-24T03:42:58.362Z,934.29
2022-11-24T03:43:58.316Z,934.29
2022-11-24T03:45:01.621Z,934.23
2022-11-24T03:45:59.369Z,934.27
2022-11-24T03:46:58.309Z,934.25
2022-11-24T03:47:58.278Z,934.32
2022-11-24T03:48:58.310Z,934.27
2022-11-24T03:49:58.262Z,934.24
2022-11-24T03:50:58.280Z,934.27
2022-11-24T03:51:58.299Z,934.28
2022-11-24T03:52:58.278Z,934.25
2022-11-24T03:53:58.259Z,934.28
2022-11-24T03:54:58.258Z,934.32
2022-11-24T03:55:58.196Z,934.29
2022-11-24T03:56:58.255Z,934.34
2022-11-24T03:57:58.178Z,934.30
2022-11-24T03:58:58.175Z,934.30
2022-11-24T03:59:58.157Z,934.31
2022-11-24T04:00:58.161Z,934.28
2022-11-24T04:01:58.183Z,934.29
2022-11-24T04:02:58.275Z,934.27
2022-11-24T04:03:58.138Z,934.30
2022-11-24T04:04:58.140Z,934.31
2022-11-24T04:05:58.251Z,934.30
2022-11-24T04:06:58.136Z,934.31
2022-11-24T04:07:58.069Z,934.35
2022-11-24T04:08:58.085Z,934.31
2022-11-24T04:09:58.076Z,934.33
2022-11-24T04:10:58.060Z,934.32
2022-11-24T04:11:58.026Z,934.36
2022-11-24T04:12:58.071Z,934.35
2022-11-24T04:13:58.013Z,934.29
2022-11-24T04:14:58.011Z,934.39
2022-11-24T04:15:58.026Z,934.33
2022-11-24T04:16:57.976Z,934.34
2022-11-24T04:17:57.998Z,934.36
2022-11-24T04:18:57.977Z,934.35
2022-11-24T04:19:57.936Z,934.38
2022-11-24T04:21:05.278Z,934.27
2022-11-24T04:21:57.964Z,934.41
2022-11-24T04:22:57.939Z,934.43
2022-11-24T04:23:57.899Z,934.49
2022-11-24T04:24:57.918Z,934.44
2022-11-24T04:25:57.895Z,934.50
2022-11-24T04:26:57.915Z,934.49
2022-11-24T04:27:57.856Z,934.53
2022-11-24T04:28:57.888Z,934.53
2022-11-24T04:29:57.837Z,934.52
2022-11-24T04:30:57.879Z,934.58
2022-11-24T04:31:57.832Z,934.55
2022-11-24T04:32:57.808Z,934.50
2022-11-24T04:33:57.835Z,934.61
2022-11-24T04:34:57.846Z,934.60
2022-11-24T04:35:57.795Z,934.65
2022-11-24T04:36:57.970Z,934.66
2022-11-24T04:37:57.757Z,934.66
2022-11-24T04:39:23.540Z,934.70
2022-11-24T04:39:58.743Z,934.72
2022-11-24T04:40:57.756Z,934.67
2022-11-24T04:41:57.722Z,934.63
2022-11-24T04:42:57.727Z,934.66
2022-11-24T04:43:57.701Z,934.71
2022-11-24T04:44:57.793Z,934.73
2022-11-24T04:45:57.712Z,934.71
2022-11-24T04:47:02.339Z,934.69
2022-11-24T04:47:57.648Z,934.73
2022-11-24T04:48:57.742Z,934.72
2022-11-24T04:49:57.632Z,934.74
2022-11-24T04:50:57.646Z,934.68
2022-11-24T04:51:57.626Z,934.73
2022-11-24T04:52:57.603Z,934.79
2022-11-24T04:53:57.595Z,934.77
2022-11-24T04:54:57.709Z,934.78
2022-11-24T04:55:57.613Z,934.79
2022-11-24T04:56:57.572Z,934.77
2022-11-24T04:57:57.565Z,934.85
2022-11-24T04:58:57.584Z,934.89
2022-11-24T04:59:57.542Z,934.85
2022-11-24T05:00:57.529Z,934.90
2022-11-24T05:01:57.746Z,934.91
2022-11-24T05:02:57.493Z,934.88
2022-11-24T05:03:57.584Z,934.90
2022-11-24T05:04:57.478Z,934.88
2022-11-24T05:05:57.489Z,934.95
2022-11-24T05:06:57.452Z,934.89
2022-11-24T05:07:57.525Z,934.94
2022-11-24T05:08:57.462Z,934.95
2022-11-24T05:09:59.662Z,935.01
2022-11-24T05:10:57.433Z,935.03
2022-11-24T05:11:57.403Z,935.05
2022-11-24T05:12:57.426Z,935.06
2022-11-24T05:13:57.460Z,935.11
2022-11-24T05:14:57.396Z,935.14
2022-11-24T05:15:57.417Z,935.10
2022-11-24T05:16:57.392Z,935.16
2022-11-24T05:17:57.344Z,935.12
2022-11-24T05:18:57.331Z,935.16
2022-11-24T05:19:57.793Z,935.18
2022-11-24T05:20:57.330Z,935.30
2022-11-24T05:21:57.306Z,935.23
2022-11-24T05:22:57.294Z,935.19
2022-11-24T05:23:57.279Z,935.21
2022-11-24T05:24:57.285Z,935.24
2022-11-24T05:25:57.771Z,935.28
2022-11-24T05:26:57.274Z,935.28
2022-11-24T05:27:57.249Z,935.31
2022-11-24T05:28:57.268Z,935.28
2022-11-24T05:29:57.222Z,935.32
2022-11-24T05:30:57.321Z,935.32
2022-11-24T05:31:57.200Z,935.30
2022-11-24T05:32:57.212Z,935.35
2022-11-24T05:33:57.176Z,935.29
2022-11-24T05:34:57.191Z,935.24
2022-11-24T05:35:57.200Z,935.25
2022-11-24T05:36:57.299Z,935.26
2022-11-24T05:37:57.130Z,935.32
2022-11-24T05:38:57.122Z,935.34
2022-11-24T05:39:57.126Z,935.36
2022-11-24T05:40:57.100Z,935.31
2022-11-24T05:41:57.168Z,935.33
2022-11-24T05:42:57.107Z,935.40
2022-11-24T05:43:57.086Z,935.34
2022-11-24T05:44:57.065Z,935.33
2022-11-24T05:45:57.123Z,935.39
2022-11-24T05:47:01.859Z,935.38
2022-11-24T05:47:57.055Z,935.40
2022-11-24T05:48:57.166Z,935.37
2022-11-24T05:49:57.010Z,935.38
2022-11-24T05:50:57.153Z,935.35
2022-11-24T05:51:57.052Z,935.37
2022-11-24T05:52:57.081Z,935.41
2022-11-24T05:53:57.056Z,935.41
2022-11-24T05:54:56.960Z,935.44
2022-11-24T05:55:56.948Z,935.47
2022-11-24T05:56:56.993Z,935.47
2022-11-24T05:57:56.969Z,935.46
2022-11-24T05:58:56.955Z,935.47
2022-11-24T05:59:57.118Z,935.45
2022-11-24T06:00:57.144Z,935.45
2022-11-24T06:01:57.022Z,935.46
2022-11-24T06:02:57.062Z,935.46
2022-11-24T06:03:56.893Z,935.40
2022-11-24T06:04:56.879Z,935.38
2022-11-24T06:05:56.867Z,935.37
2022-11-24T06:06:56.867Z,935.37
2022-11-24T06:07:56.928Z,935.39
2022-11-24T06:08:56.828Z,935.38
2022-11-24T06:09:56.830Z,935.46
2022-11-24T06:10:56.827Z,935.44
2022-11-24T06:11:56.831Z,935.45
2022-11-24T06:12:56.841Z,935.43
2022-11-24T06:13:56.900Z,935.45
2022-11-24T06:14:56.772Z,935.53
2022-11-24T06:15:56.775Z,935.53
2022-11-24T06:16:56.820Z,935.54
2022-11-24T06:17:56.747Z,935.50
2022-11-24T06:18:56.743Z,935.48
2022-11-24T06:19:56.710Z,935.55
2022-11-24T06:21:10.123Z,935.52
2022-11-24T06:21:57.717Z,935.50
2022-11-24T06:22:56.711Z,935.52
2022-11-24T06:23:57.261Z,935.48
2022-11-24T06:24:56.650Z,935.53
2022-11-24T06:25:56.698Z,935.51
2022-11-24T06:26:56.640Z,935.50
2022-11-24T06:27:56.790Z,935.48
2022-11-24T06:28:56.606Z,935.48
2022-11-24T06:29:56.594Z,935.53
2022-11-24T06:30:56.612Z,935.54
2022-11-24T06:31:56.694Z,935.54
2022-11-24T06:32:56.555Z,935.58
2022-11-24T06:33:56.596Z,935.54
2022-11-24T06:34:56.606Z,935.55
2022-11-24T06:35:56.554Z,935.53
2022-11-24T06:36:56.552Z,935.56
2022-11-24T06:37:56.522Z,935.58
2022-11-24T06:38:56.815Z,935.55
2022-11-24T06:39:56.640Z,935.56
2022-11-24T06:40:56.504Z,935.54
2022-11-24T06:41:56.481Z,935.56
2022-11-24T06:42:56.481Z,935.53
2022-11-24T06:43:56.479Z,935.56
2022-11-24T06:44:56.526Z,935.56
2022-11-24T06:45:56.516Z,935.56
2022-11-24T06:46:56.440Z,935.58
2022-11-24T06:47:56.495Z,935.57
2022-11-24T06:48:56.399Z,935.54
2022-11-24T06:49:56.402Z,935.55
2022-11-24T06:50:56.439Z,935.60
2022-11-24T06:51:56.563Z,935.61
2022-11-24T06:52:56.420Z,935.64
2022-11-24T06:53:56.350Z,935.63
2022-11-24T06:54:56.351Z,935.65
2022-11-24T06:55:56.536Z,935.64
2022-11-24T06:56:56.331Z,935.70
2022-11-24T06:57:56.305Z,935.67
2022-11-24T06:58:56.325Z,935.63
2022-11-24T06:59:56.348Z,935.66
2022-11-24T07:00:56.439Z,935.62
2022-11-24T07:01:56.270Z,935.60
2022-11-24T07:02:56.471Z,935.62
2022-11-24T07:03:56.287Z,935.60
2022-11-24T07:04:56.275Z,935.57
2022-11-24T07:05:56.437Z,935.61
2022-11-24T07:06:56.255Z,935.66
2022-11-24T07:07:56.308Z,935.64
2022-11-24T07:08:56.202Z,935.66
2022-11-24T07:09:56.221Z,935.67
2022-11-24T07:10:56.244Z,935.67
2022-11-24T07:11:56.234Z,935.68
2022-11-24T07:12:56.176Z,935.73
2022-11-24T07:13:59.925Z,935.68
2022-11-24T07:14:56.132Z,935.72
2022-11-24T07:15:56.156Z,935.73
2022-11-24T07:16:56.269Z,935.78
2022-11-24T07:17:56.125Z,935.76
2022-11-24T07:18:56.222Z,935.80
2022-11-24T07:19:56.085Z,935.84
2022-11-24T07:20:56.086Z,935.82
2022-11-24T07:21:56.117Z,935.79
2022-11-24T07:22:56.156Z,935.83
2022-11-24T07:23:56.079Z,935.84
2022-11-24T07:24:56.151Z,935.88
2022-11-24T07:25:56.127Z,935.88
2022-11-24T07:26:56.030Z,935.87
2022-11-24T07:27:56.010Z,935.93
2022-11-24T07:28:56.004Z,935.87
2022-11-24T07:29:55.996Z,935.94
2022-11-24T07:30:55.968Z,935.90
2022-11-24T07:31:59.559Z,935.89
2022-11-24T07:32:56.946Z,935.93
2022-11-24T07:33:55.953Z,935.86
2022-11-24T07:34:55.990Z,935.90
2022-11-24T07:35:55.913Z,935.91
2022-11-24T07:36:55.921Z,935.83
2022-11-24T07:37:55.896Z,935.83
2022-11-24T07:38:55.936Z,935.84
2022-11-24T07:39:55.903Z,935.84
2022-11-24T07:40:55.872Z,935.88
2022-11-24T07:41:55.868Z,935.91
2022-11-24T07:42:55.840Z,935.98
2022-11-24T07:43:55.835Z,935.90
2022-11-24T07:44:55.848Z,935.93
2022-11-24T07:45:55.940Z,935.96
2022-11-24T07:46:55.803Z,935.92
2022-11-24T07:47:55.868Z,935.94
2022-11-24T07:48:55.781Z,935.92
2022-11-24T07:49:55.804Z,935.97
2022-11-24T07:50:56.497Z,935.88
2022-11-24T07:51:55.807Z,935.87
2022-11-24T07:52:55.742Z,935.87
2022-11-24T07:53:55.731Z,935.88
2022-11-24T07:54:55.799Z,935.82
2022-11-24T07:55:55.711Z,935.82
2022-11-24T07:56:55.713Z,935.83
2022-11-24T07:57:55.694Z,935.82
2022-11-24T07:58:55.679Z,935.88
2022-11-24T07:59:55.790Z,935.82
2022-11-24T08:00:55.875Z,935.84
2022-11-24T08:01:55.699Z,935.85
2022-11-24T08:02:55.693Z,935.82
2022-11-24T08:03:55.731Z,935.80
2022-11-24T08:04:55.660Z,935.79
2022-11-24T08:06:22.126Z,935.78
2022-11-24T08:06:56.622Z,935.84
2022-11-24T08:07:55.701Z,935.82
2022-11-24T08:08:55.585Z,935.86
2022-11-24T08:09:55.562Z,935.78
2022-11-24T08:10:55.563Z,935.81
2022-11-24T08:11:55.546Z,935.87
2022-11-24T08:12:55.588Z,935.86
2022-11-24T08:13:55.566Z,935.85
2022-11-24T08:14:55.564Z,935.87
2022-11-24T08:15:55.511Z,935.85
2022-11-24T08:16:55.575Z,935.80
2022-11-24T08:17:55.541Z,935.82
2022-11-24T08:18:55.471Z,935.80
2022-11-24T08:19:55.461Z,935.88
2022-11-24T08:20:55.450Z,935.78
2022-11-24T08:21:55.434Z,935.78
2022-11-24T08:22:55.517Z,935.84
2022-11-24T08:23:55.438Z,935.83
2022-11-24T08:24:55.402Z,935.85
2022-11-24T08:25:57.020Z,935.86
2022-11-24T08:26:55.397Z,935.89
2022-11-24T08:27:55.440Z,935.81
2022-11-24T08:28:55.359Z,935.85
2022-11-24T08:29:55.390Z,935.82
2022-11-24T08:30:55.361Z,935.78
2022-11-24T08:31:55.397Z,935.81
2022-11-24T08:32:55.403Z,935.91
2022-11-24T08:33:55.372Z,935.85
2022-11-24T08:34:59.579Z,935.84
2022-11-24T08:35:56.297Z,935.92
2022-11-24T08:36:55.279Z,935.90
2022-11-24T08:37:58.153Z,935.89
2022-11-24T08:38:56.313Z,935.91
2022-11-24T08:39:55.268Z,935.94
2022-11-24T08:40:55.293Z,935.94
2022-11-24T08:41:55.402Z,935.92
2022-11-24T08:42:55.273Z,935.90
2022-11-24T08:43:55.219Z,935.94
2022-11-24T08:44:59.068Z,935.93
2022-11-24T08:45:55.277Z,935.98
2022-11-24T08:46:55.233Z,935.96
2022-11-24T08:47:55.187Z,935.95
2022-11-24T08:48:55.223Z,936.00
2022-11-24T08:49:55.263Z,936.03
2022-11-24T08:50:55.145Z,936.04
2022-11-24T08:51:55.166Z,936.04
2022-11-24T08:52:55.134Z,936.00
2022-11-24T08:53:55.109Z,936.02
2022-11-24T08:54:55.244Z,935.96
2022-11-24T08:55:55.074Z,935.96
2022-11-24T08:56:55.132Z,935.98
2022-11-24T08:57:55.053Z,935.99
2022-11-24T08:58:55.826Z,935.98
2022-11-24T08:59:55.108Z,936.02
2022-11-24T09:00:55.321Z,936.05
2022-11-24T09:01:55.219Z,936.10
2022-11-24T09:02:55.795Z,936.11
2022-11-24T09:03:55.212Z,936.13
2022-11-24T09:04:55.062Z,936.17
2022-11-24T09:05:55.009Z,936.09
2022-11-24T09:06:55.041Z,936.14
2022-11-24T09:07:55.049Z,936.21
2022-11-24T09:08:55.033Z,936.16
2022-11-24T09:09:54.984Z,936.18
2022-11-24T09:10:55.027Z,936.21
2022-11-24T09:11:55.049Z,936.22
2022-11-24T09:12:54.929Z,936.19
2022-11-24T09:13:54.987Z,936.21
2022-11-24T09:14:54.930Z,936.20
2022-11-24T09:15:55.784Z,936.17
2022-11-24T09:16:54.905Z,936.18
2022-11-24T09:17:54.850Z,936.22
2022-11-24T09:18:54.887Z,936.23
2022-11-24T09:19:54.907Z,936.24
2022-11-24T09:20:54.814Z,936.25
2022-11-24T09:22:02.680Z,936.27
2022-11-24T09:22:54.805Z,936.32
2022-11-24T09:23:54.790Z,936.37
2022-11-24T09:24:54.806Z,936.37
2022-11-24T09:25:54.822Z,936.32
2022-11-24T09:26:54.778Z,936.41
2022-11-24T09:27:54.737Z,936.36
2022-11-24T09:28:54.785Z,936.39
2022-11-24T09:29:54.747Z,936.40
2022-11-24T09:30:54.758Z,936.48
2022-11-24T09:31:54.692Z,936.43
2022-11-24T09:32:54.734Z,936.44
2022-11-24T09:33:54.900Z,936.48
2022-11-24T09:34:54.764Z,936.45
2022-11-24T09:35:54.712Z,936.46
2022-11-24T09:36:54.671Z,936.53
2022-11-24T09:37:54.656Z,936.49
2022-11-24T09:38:54.661Z,936.44
2022-11-24T09:39:54.607Z,936.48
2022-11-24T09:40:54.690Z,936.53
2022-11-24T09:41:54.769Z,936.55
2022-11-24T09:42:55.334Z,936.49
2022-11-24T09:43:54.695Z,936.48
2022-11-24T09:44:54.606Z,936.49
2022-11-24T09:46:05.349Z,936.51
2022-11-24T09:46:55.645Z,936.53
2022-11-24T09:47:54.543Z,936.50
2022-11-24T09:48:54.541Z,936.52
2022-11-24T09:49:54.517Z,936.50
2022-11-24T09:50:54.503Z,936.52
2022-11-24T09:51:54.513Z,936.48
2022-11-24T09:52:54.696Z,936.51
2022-11-24T09:53:54.493Z,936.52
2022-11-24T09:54:54.471Z,936.52
2022-11-24T09:55:54.454Z,936.53
2022-11-24T09:56:54.644Z,936.52
2022-11-24T09:57:54.588Z,936.53
2022-11-24T09:58:55.962Z,936.54
2022-11-24T09:59:54.669Z,936.44
2022-11-24T10:00:54.554Z,936.47
2022-11-24T10:01:54.626Z,936.43
2022-11-24T10:02:54.520Z,936.48
2022-11-24T10:03:54.531Z,936.43
2022-11-24T10:04:54.420Z,936.45
2022-11-24T10:05:54.334Z,936.40
2022-11-24T10:06:54.479Z,936.39
2022-11-24T10:07:54.639Z,936.29
2022-11-24T10:08:54.408Z,936.33
2022-11-24T10:09:54.315Z,936.32
2022-11-24T10:10:54.824Z,936.21
2022-11-24T10:11:54.317Z,936.25
2022-11-24T10:12:54.272Z,936.29
2022-11-24T10:13:54.557Z,936.24
2022-11-24T10:14:54.538Z,936.30
2022-11-24T10:15:54.462Z,936.29
2022-11-24T10:16:54.230Z,936.21
2022-11-24T10:17:54.223Z,936.23
2022-11-24T10:18:54.233Z,936.15
2022-11-24T10:19:54.187Z,936.17
2022-11-24T10:20:54.232Z,936.27
2022-11-24T10:21:54.227Z,936.30
2022-11-24T10:22:54.166Z,936.25
2022-11-24T10:23:54.145Z,936.28
2022-11-24T10:24:54.235Z,936.28
2022-11-24T10:25:54.193Z,936.28
2022-11-24T10:26:54.131Z,936.27
2022-11-24T10:27:54.659Z,936.28
2022-11-24T10:28:54.109Z,936.36
2022-11-24T10:29:54.091Z,936.22
2022-11-24T10:30:54.223Z,936.28
2022-11-24T10:31:54.100Z,936.34
2022-11-24T10:32:54.061Z,936.26
2022-11-24T10:33:54.074Z,936.33
2022-11-24T10:34:54.064Z,936.41
2022-11-24T10:35:54.021Z,936.37
2022-11-24T10:36:54.878Z,936.33
2022-11-24T10:37:54.001Z,936.30
2022-11-24T10:38:54.026Z,936.42
2022-11-24T10:39:59.703Z,936.44
2022-11-24T10:40:57.752Z,936.41
2022-11-24T10:41:53.951Z,936.47
2022-11-24T10:42:53.967Z,936.51
2022-11-24T10:43:53.985Z,936.52
2022-11-24T10:44:53.929Z,936.43
2022-11-24T10:45:54.038Z,936.56
2022-11-24T10:46:54.050Z,936.56
2022-11-24T10:47:53.903Z,936.55
2022-11-24T10:48:53.879Z,936.64
2022-11-24T10:49:53.864Z,936.63
2022-11-24T10:50:53.888Z,936.74
2022-11-24T10:51:53.879Z,936.75
2022-11-24T10:52:53.845Z,936.72
2022-11-24T10:53:53.832Z,936.59
2022-11-24T10:54:53.818Z,936.72
2022-11-24T10:55:53.802Z,936.65
2022-11-24T10:56:53.847Z,936.69
2022-11-24T10:57:53.789Z,936.67
2022-11-24T10:58:53.805Z,936.72
2022-11-24T10:59:53.812Z,936.75
2022-11-24T11:00:53.771Z,936.71
2022-11-24T11:01:53.891Z,936.69
2022-11-24T11:02:53.890Z,936.76
2022-11-24T11:03:53.718Z,936.63
2022-11-24T11:04:53.771Z,936.72
2022-11-24T11:05:53.714Z,936.74
2022-11-24T11:06:53.706Z,936.71
2022-11-24T11:07:53.753Z,936.66
2022-11-24T11:08:53.678Z,936.80
2022-11-24T11:09:53.673Z,936.89
2022-11-24T11:10:53.684Z,936.67
2022-11-24T11:11:53.701Z,936.85
2022-11-24T11:12:53.635Z,936.74
2022-11-24T11:13:58.224Z,936.77
2022-11-24T11:14:54.604Z,936.71
2022-11-24T11:15:53.665Z,936.75
2022-11-24T11:16:53.592Z,936.38
2022-11-24T11:17:53.596Z,936.43
2022-11-24T11:18:53.583Z,936.43
2022-11-24T11:20:01.438Z,936.36
2022-11-24T11:20:54.546Z,936.45
2022-11-24T11:21:53.526Z,936.53
2022-11-24T11:22:53.573Z,936.65
2022-11-24T11:23:53.650Z,936.76
2022-11-24T11:24:53.514Z,936.82
2022-11-24T11:25:53.539Z,936.61
2022-11-24T11:26:53.524Z,936.66
2022-11-24T11:27:53.486Z,936.54
2022-11-24T11:28:53.552Z,936.64
2022-11-24T11:34:03.597Z,936.64
2022-11-24T11:34:54.434Z,936.78
2022-11-24T11:35:53.405Z,936.79
2022-11-24T11:36:53.387Z,936.75
2022-11-24T11:37:53.467Z,936.80
2022-11-24T11:38:53.379Z,936.81
2022-11-24T11:39:53.410Z,936.83
2022-11-24T11:40:53.354Z,936.83
2022-11-24T11:41:53.319Z,936.82
2022-11-24T11:43:02.352Z,936.71
2022-11-24T11:43:54.339Z,936.87
2022-11-24T11:44:53.316Z,936.78
2022-11-24T11:45:53.535Z,936.90
2022-11-24T11:46:53.312Z,936.88
2022-11-24T11:47:53.330Z,936.92
2022-11-24T11:48:53.246Z,936.95
2022-11-24T11:49:53.401Z,937.05
2022-11-24T11:51:21.768Z,937.02
2022-11-24T11:51:54.240Z,936.99
2022-11-24T11:52:53.218Z,936.99
2022-11-24T11:53:53.349Z,936.99
2022-11-24T11:54:53.276Z,937.01
2022-11-24T11:55:53.167Z,936.98
2022-11-24T11:56:53.184Z,937.03
2022-11-24T11:57:53.175Z,936.98
2022-11-24T11:58:53.157Z,936.98
2022-11-24T11:59:53.185Z,936.92
2022-11-24T12:00:53.157Z,936.90
2022-11-24T12:01:53.135Z,936.88
2022-11-24T12:02:54.084Z,936.86
2022-11-24T12:03:53.248Z,936.88
2022-11-24T12:04:53.086Z,936.82
2022-11-24T12:05:53.100Z,936.86
2022-11-24T12:06:53.093Z,936.81
2022-11-24T12:07:53.164Z,936.74
2022-11-24T12:09:54.018Z,936.82
2022-11-24T12:10:53.071Z,936.71
2022-11-24T12:11:53.843Z,936.78
2022-11-24T12:12:53.005Z,936.79
2022-11-24T12:13:53.036Z,936.80
2022-11-24T12:14:52.976Z,936.76
2022-11-24T12:15:53.060Z,936.77
2022-11-24T12:16:52.977Z,936.79
2022-11-24T12:17:57.854Z,936.79
2022-11-24T12:18:58.012Z,936.81
2022-11-24T12:19:53.909Z,936.86
2022-11-24T12:20:52.904Z,936.81
2022-11-24T12:21:52.895Z,936.82
2022-11-24T12:22:53.010Z,936.88
2022-11-24T12:23:52.880Z,936.87
2022-11-24T12:24:52.972Z,936.85
2022-11-24T12:25:52.868Z,936.91
2022-11-24T12:26:52.874Z,936.91
2022-11-24T12:27:52.839Z,936.87
2022-11-24T12:28:52.815Z,936.95
2022-11-24T12:29:52.818Z,936.96
2022-11-24T12:30:52.877Z,936.96
2022-11-24T12:31:52.860Z,936.98
2022-11-24T12:32:52.800Z,936.90